sensor_id;sensor_type;location;lat;lon;timestamp;pressure;altitude;pressure_sealevel;temperature;humidity
18795;BME280;29610;49.022;12.114;2023-01-29T00:01:10;98783.97;;;0.84;100.00
18795;BME280;29610;49.022;12.114;2023-01-29T00:03:40;98789.06;;;0.97;100.00
18795;BME280;29610;49.022;12.114;2023-01-29T00:06:09;98789.06;;;0.97;100.00
18795;BME280;29610;49.022;12.114;2023-01-29T00:08:39;98778.94;;;0.88;100.00
18795;BME280;29610;49.022;12.114;2023-01-29T00:11:08;98787.19;;;0.86;100.00
18795;BME280;29610;49.022;12.114;2023-01-29T00:13:37;98797.09;;;0.74;100.00
18795;BME280;29610;49.022;12.114;2023-01-29T00:16:06;98794.91;;;0.83;100.00
18795;BME280;29610;49.022;12.114;2023-01-29T00:18:37;98801.63;;;0.74;100.00
18795;BME280;29610;49.022;12.114;2023-01-29T00:21:10;98793.72;;;0.56;100.00
18795;BME280;29610;49.022;12.114;2023-01-29T00:23:39;98791.13;;;0.61;100.00
18795;BME280;29610;49.022;12.114;2023-01-29T00:26:09;98778.50;;;0.79;100.00
18795;BME280;29610;49.022;12.114;2023-01-29T00:28:44;98779.53;;;0.90;100.00
18795;BME280;29610;49.022;12.114;2023-01-29T00:31:16;98787.19;;;0.86;100.00
18795;BME280;29610;49.022;12.114;2023-01-29T00:33:46;98793.38;;;0.98;100.00
18795;BME280;29610;49.022;12.114;2023-01-29T00:36:18;98791.25;;;0.66;100.00
18795;BME280;29610;49.022;12.114;2023-01-29T00:38:47;98795.22;;;0.63;100.00
18795;BME280;29610;49.022;12.114;2023-01-29T00:41:27;98788.47;;;0.61;100.00
18795;BME280;29610;49.022;12.114;2023-01-29T00:44:15;98799.50;;;0.41;100.00
18795;BME280;29610;49.022;12.114;2023-01-29T00:47:01;98789.84;;;0.52;100.00
18795;BME280;29610;49.022;12.114;2023-01-29T00:49:30;98791.59;;;0.58;100.00
18795;BME280;29610;49.022;12.114;2023-01-29T00:52:00;98788.72;;;0.71;100.00
18795;BME280;29610;49.022;12.114;2023-01-29T00:54:46;98783.03;;;0.90;100.00
18795;BME280;29610;49.022;12.114;2023-01-29T00:57:15;98779.28;;;0.91;100.00
18795;BME280;29610;49.022;12.114;2023-01-29T00:59:43;98778.59;;;0.84;100.00
18795;BME280;29610;49.022;12.114;2023-01-29T01:02:12;98770.91;;;0.88;100.00
18795;BME280;29610;49.022;12.114;2023-01-29T01:04:58;98762.06;;;0.76;100.00
18795;BME280;29610;49.022;12.114;2023-01-29T01:07:31;98767.56;;;0.81;100.00
18795;BME280;29610;49.022;12.114;2023-01-29T01:10:00;98768.84;;;0.67;100.00
18795;BME280;29610;49.022;12.114;2023-01-29T01:12:48;98776.25;;;0.53;100.00
18795;BME280;29610;49.022;12.114;2023-01-29T01:15:18;98776.75;;;0.73;100.00
18795;BME280;29610;49.022;12.114;2023-01-29T01:17:47;98768.50;;;0.75;100.00
18795;BME280;29610;49.022;12.114;2023-01-29T01:20:16;98776.97;;;0.72;100.00
18795;BME280;29610;49.022;12.114;2023-01-29T01:22:47;98769.84;;;0.66;100.00
18795;BME280;29610;49.022;12.114;2023-01-29T01:25:16;98763.69;;;0.77;100.00
18795;BME280;29610;49.022;12.114;2023-01-29T01:27:45;98775.22;;;0.66;100.00
18795;BME280;29610;49.022;12.114;2023-01-29T01:30:15;98768.72;;;0.73;100.00
18795;BME280;29610;49.022;12.114;2023-01-29T01:32:44;98764.88;;;0.81;100.00
18795;BME280;29610;49.022;12.114;2023-01-29T01:35:13;98764.41;;;0.84;100.00
18795;BME280;29610;49.022;12.114;2023-01-29T01:37:42;98764.88;;;0.69;100.00
18795;BME280;29610;49.022;12.114;2023-01-29T01:40:16;98761.50;;;0.74;100.00
18795;BME280;29610;49.022;12.114;2023-01-29T01:42:48;98749.50;;;0.65;100.00
18795;BME280;29610;49.022;12.114;2023-01-29T01:45:22;98741.50;;;0.65;100.00
18795;BME280;29610;49.022;12.114;2023-01-29T01:47:58;98745.31;;;0.69;100.00
18795;BME280;29610;49.022;12.114;2023-01-29T01:50:34;98748.47;;;0.54;100.00
18795;BME280;29610;49.022;12.114;2023-01-29T01:53:09;98746.47;;;0.38;100.00
18795;BME280;29610;49.022;12.114;2023-01-29T01:55:44;98744.88;;;0.60;100.00
18795;BME280;29610;49.022;12.114;2023-01-29T01:58:21;98740.88;;;0.51;100.00
18795;BME280;29610;49.022;12.114;2023-01-29T02:00:52;98734.75;;;0.51;100.00
18795;BME280;29610;49.022;12.114;2023-01-29T02:03:23;98734.03;;;0.55;100.00
18795;BME280;29610;49.022;12.114;2023-01-29T02:06:13;98733.94;;;0.62;100.00
18795;BME280;29610;49.022;12.114;2023-01-29T02:09:05;98732.88;;;0.63;100.00
18795;BME280;29610;49.022;12.114;2023-01-29T02:11:55;98734.28;;;0.54;100.00
18795;BME280;29610;49.022;12.114;2023-01-29T02:14:24;98740.09;;;0.62;100.00
18795;BME280;29610;49.022;12.114;2023-01-29T02:16:52;98748.22;;;0.44;100.00
18795;BME280;29610;49.022;12.114;2023-01-29T02:19:35;98749.72;;;0.52;100.00
18795;BME280;29610;49.022;12.114;2023-01-29T02:22:25;98763.19;;;0.34;100.00
18795;BME280;29610;49.022;12.114;2023-01-29T02:25:22;98764.53;;;0.54;100.00
18795;BME280;29610;49.022;12.114;2023-01-29T02:28:19;98752.53;;;0.68;100.00
18795;BME280;29610;49.022;12.114;2023-01-29T02:31:01;98765.69;;;0.58;100.00
18795;BME280;29610;49.022;12.114;2023-01-29T02:33:47;98763.13;;;0.63;100.00
18795;BME280;29610;49.022;12.114;2023-01-29T02:36:34;98763.34;;;0.62;100.00
18795;BME280;29610;49.022;12.114;2023-01-29T02:39:15;98755.91;;;0.75;100.00
18795;BME280;29610;49.022;12.114;2023-01-29T02:41:59;98754.41;;;0.79;100.00
18795;BME280;29610;49.022;12.114;2023-01-29T02:44:37;98757.06;;;0.68;100.00
18795;BME280;29610;49.022;12.114;2023-01-29T02:47:15;98757.53;;;0.65;100.00
18795;BME280;29610;49.022;12.114;2023-01-29T02:49:53;98757.75;;;0.52;100.00
18795;BME280;29610;49.022;12.114;2023-01-29T02:52:32;98759.75;;;0.45;100.00
18795;BME280;29610;49.022;12.114;2023-01-29T02:55:09;98760.66;;;0.50;100.00
18795;BME280;29610;49.022;12.114;2023-01-29T02:57:43;98760.91;;;0.60;100.00
18795;BME280;29610;49.022;12.114;2023-01-29T03:00:19;98759.84;;;0.61;100.00
18795;BME280;29610;49.022;12.114;2023-01-29T03:02:57;98753.47;;;0.62;100.00
18795;BME280;29610;49.022;12.114;2023-01-29T03:05:33;98753.94;;;0.71;100.00
18795;BME280;29610;49.022;12.114;2023-01-29T03:08:08;98753.56;;;0.67;100.00
18795;BME280;29610;49.022;12.114;2023-01-29T03:10:47;98757.19;;;0.61;100.00
18795;BME280;29610;49.022;12.114;2023-01-29T03:13:25;98757.75;;;0.52;100.00
18795;BME280;29610;49.022;12.114;2023-01-29T03:16:06;98744.97;;;0.54;100.00
18795;BME280;29610;49.022;12.114;2023-01-29T03:18:46;98741.97;;;0.62;100.00
18795;BME280;29610;49.022;12.114;2023-01-29T03:21:24;98743.34;;;0.53;100.00
18795;BME280;29610;49.022;12.114;2023-01-29T03:24:15;98743.25;;;0.48;100.00
18795;BME280;29610;49.022;12.114;2023-01-29T03:27:08;98745.75;;;0.31;100.00
18795;BME280;29610;49.022;12.114;2023-01-29T03:29:57;98747.16;;;0.45;100.00
18795;BME280;29610;49.022;12.114;2023-01-29T03:33:03;98754.94;;;0.35;100.00
18795;BME280;29610;49.022;12.114;2023-01-29T03:35:37;98751.81;;;0.50;100.00
18795;BME280;29610;49.022;12.114;2023-01-29T03:38:09;98753.09;;;0.36;100.00
18795;BME280;29610;49.022;12.114;2023-01-29T03:40:48;98758.66;;;0.34;100.00
18795;BME280;29610;49.022;12.114;2023-01-29T03:43:30;98765.44;;;0.60;100.00
18795;BME280;29610;49.022;12.114;2023-01-29T03:46:07;98770.53;;;0.50;100.00
18795;BME280;29610;49.022;12.114;2023-01-29T03:48:47;98767.28;;;0.59;100.00
18795;BME280;29610;49.022;12.114;2023-01-29T03:51:27;98761.03;;;0.65;100.00
18795;BME280;29610;49.022;12.114;2023-01-29T03:54:06;98766.25;;;0.49;100.00
18795;BME280;29610;49.022;12.114;2023-01-29T03:56:53;98782.41;;;0.54;100.00
18795;BME280;29610;49.022;12.114;2023-01-29T03:59:36;98779.25;;;0.45;100.00
18795;BME280;29610;49.022;12.114;2023-01-29T04:02:31;98784.53;;;0.63;100.00
18795;BME280;29610;49.022;12.114;2023-01-29T04:05:17;98783.25;;;0.77;100.00
18795;BME280;29610;49.022;12.114;2023-01-29T04:08:09;98775.22;;;0.66;100.00
18795;BME280;29610;49.022;12.114;2023-01-29T04:10:41;98775.91;;;0.61;100.00
18795;BME280;29610;49.022;12.114;2023-01-29T04:13:15;98775.78;;;0.56;100.00
18795;BME280;29610;49.022;12.114;2023-01-29T04:15:53;98768.72;;;0.73;100.00
18795;BME280;29610;49.022;12.114;2023-01-29T04:18:53;98765.69;;;0.81;100.00
18795;BME280;29610;49.022;12.114;2023-01-29T04:21:30;98763.69;;;0.88;100.00
18795;BME280;29610;49.022;12.114;2023-01-29T04:23:59;98763.69;;;1.00;100.00
18795;BME280;29610;49.022;12.114;2023-01-29T04:26:49;98764.53;;;0.89;100.00
18795;BME280;29610;49.022;12.114;2023-01-29T04:29:34;98775.66;;;0.97;100.00
18795;BME280;29610;49.022;12.114;2023-01-29T04:32:17;98780.34;;;1.02;100.00
18795;BME280;29610;49.022;12.114;2023-01-29T04:34:59;98778.94;;;0.88;100.00
18795;BME280;29610;49.022;12.114;2023-01-29T04:37:39;98782.53;;;0.82;100.00
18795;BME280;29610;49.022;12.114;2023-01-29T04:40:19;98784.06;;;0.66;100.00
18795;BME280;29610;49.022;12.114;2023-01-29T04:42:56;98777.91;;;0.77;100.00
18795;BME280;29610;49.022;12.114;2023-01-29T04:45:38;98775.09;;;0.84;100.00
18795;BME280;29610;49.022;12.114;2023-01-29T04:48:22;98777.31;;;0.75;100.00
18795;BME280;29610;49.022;12.114;2023-01-29T04:50:59;98774.88;;;0.97;100.00
18795;BME280;29610;49.022;12.114;2023-01-29T04:53:42;98773.38;;;0.78;100.00
18795;BME280;29610;49.022;12.114;2023-01-29T04:56:20;98769.75;;;0.95;100.00
18795;BME280;29610;49.022;12.114;2023-01-29T04:58:58;98775.09;;;0.72;100.00
18795;BME280;29610;49.022;12.114;2023-01-29T05:01:30;98765.91;;;0.68;100.00
18795;BME280;29610;49.022;12.114;2023-01-29T05:04:06;98773.47;;;0.60;100.00
18795;BME280;29610;49.022;12.114;2023-01-29T05:06:38;98771.00;;;0.47;100.00
18795;BME280;29610;49.022;12.114;2023-01-29T05:09:11;98769.75;;;0.49;100.00
18795;BME280;29610;49.022;12.114;2023-01-29T05:11:43;98768.72;;;0.62;100.00
18795;BME280;29610;49.022;12.114;2023-01-29T05:14:17;98762.06;;;0.76;100.00
18795;BME280;29610;49.022;12.114;2023-01-29T05:16:50;98762.06;;;0.41;100.00
18795;BME280;29610;49.022;12.114;2023-01-29T05:19:20;98761.03;;;0.54;100.00
18795;BME280;29610;49.022;12.114;2023-01-29T05:21:49;98744.75;;;0.67;100.00
18795;BME280;29610;49.022;12.114;2023-01-29T05:24:24;98746.47;;;0.61;100.00
18795;BME280;29610;49.022;12.114;2023-01-29T05:26:54;98745.56;;;0.79;100.00
18795;BME280;29610;49.022;12.114;2023-01-29T05:29:45;98750.78;;;0.74;100.00
18795;BME280;29610;49.022;12.114;2023-01-29T05:32:14;98755.09;;;0.75;100.00
18795;BME280;29610;49.022;12.114;2023-01-29T05:34:43;98756.25;;;0.67;100.00
18795;BME280;29610;49.022;12.114;2023-01-29T05:37:12;98747.75;;;0.47;100.00
18795;BME280;29610;49.022;12.114;2023-01-29T05:39:42;98746.38;;;0.56;100.00
18795;BME280;29610;49.022;12.114;2023-01-29T05:42:11;98748.69;;;0.41;100.00
18795;BME280;29610;49.022;12.114;2023-01-29T05:44:40;98752.50;;;0.34;100.00
18795;BME280;29610;49.022;12.114;2023-01-29T05:47:08;98753.56;;;0.33;100.00
18795;BME280;29610;49.022;12.114;2023-01-29T05:49:37;98762.81;;;0.19;100.00
18795;BME280;29610;49.022;12.114;2023-01-29T05:52:06;98767.47;;;0.23;100.00
18795;BME280;29610;49.022;12.114;2023-01-29T05:54:34;98775.91;;;0.38;100.00
18795;BME280;29610;49.022;12.114;2023-01-29T05:57:04;98775.75;;;0.33;100.00
18795;BME280;29610;49.022;12.114;2023-01-29T05:59:33;98781.56;;;0.42;100.00
18795;BME280;29610;49.022;12.114;2023-01-29T06:02:01;98771.25;;;0.45;100.00
18795;BME280;29610;49.022;12.114;2023-01-29T06:04:30;98769.50;;;0.51;100.00
18795;BME280;29610;49.022;12.114;2023-01-29T06:06:59;98758.59;;;0.52;100.00
18795;BME280;29610;49.022;12.114;2023-01-29T06:09:29;98765.19;;;0.50;100.00
18795;BME280;29610;49.022;12.114;2023-01-29T06:11:58;98760.75;;;0.32;100.00
18795;BME280;29610;49.022;12.114;2023-01-29T06:14:28;98751.91;;;0.20;100.00
18795;BME280;29610;49.022;12.114;2023-01-29T06:16:57;98745.03;;;0.13;100.00
18795;BME280;29610;49.022;12.114;2023-01-29T06:19:25;98737.97;;;0.30;100.00
18795;BME280;29610;49.022;12.114;2023-01-29T06:21:54;98734.84;;;0.33;100.00
18795;BME280;29610;49.022;12.114;2023-01-29T06:24:23;98734.50;;;0.41;100.00
18795;BME280;29610;49.022;12.114;2023-01-29T06:26:52;98734.16;;;0.49;100.00
18795;BME280;29610;49.022;12.114;2023-01-29T06:29:20;98726.25;;;0.42;100.00
18795;BME280;29610;49.022;12.114;2023-01-29T06:31:50;98732.75;;;0.35;100.00
18795;BME280;29610;49.022;12.114;2023-01-29T06:34:19;98717.41;;;0.42;100.00
18795;BME280;29610;49.022;12.114;2023-01-29T06:36:48;98706.81;;;0.35;100.00
18795;BME280;29610;49.022;12.114;2023-01-29T06:39:16;98706.81;;;0.47;100.00
18795;BME280;29610;49.022;12.114;2023-01-29T06:41:45;98703.09;;;0.36;100.00
18795;BME280;29610;49.022;12.114;2023-01-29T06:44:13;98716.94;;;0.33;100.00
18795;BME280;29610;49.022;12.114;2023-01-29T06:46:42;98724.72;;;0.23;100.00
18795;BME280;29610;49.022;12.114;2023-01-29T06:49:12;98725.88;;;0.39;100.00
18795;BME280;29610;49.022;12.114;2023-01-29T06:51:41;98725.75;;;0.34;100.00
18795;BME280;29610;49.022;12.114;2023-01-29T06:54:10;98736.69;;;0.21;100.00
18795;BME280;29610;49.022;12.114;2023-01-29T06:56:38;98738.41;;;0.15;100.00
18795;BME280;29610;49.022;12.114;2023-01-29T06:59:07;98744.47;;;0.22;100.00
18795;BME280;29610;49.022;12.114;2023-01-29T07:01:38;98746.69;;;0.25;100.00
18795;BME280;29610;49.022;12.114;2023-01-29T07:04:09;98741.91;;;0.16;100.00
18795;BME280;29610;49.022;12.114;2023-01-29T07:06:40;98751.78;;;0.15;100.00
18795;BME280;29610;49.022;12.114;2023-01-29T07:09:11;98757.72;;;0.17;100.00
18795;BME280;29610;49.022;12.114;2023-01-29T07:11:41;98759.94;;;0.20;100.00
18795;BME280;29610;49.022;12.114;2023-01-29T07:14:10;98761.53;;;0.10;100.00
18795;BME280;29610;49.022;12.114;2023-01-29T07:16:38;98759.28;;;0.07;100.00
18795;BME280;29610;49.022;12.114;2023-01-29T07:19:07;98763.84;;;0.06;100.00
18795;BME280;29610;49.022;12.114;2023-01-29T07:21:36;98766.47;;;-0.06;100.00
18795;BME280;29610;49.022;12.114;2023-01-29T07:24:07;98775.41;;;-0.12;100.00
18795;BME280;29610;49.022;12.114;2023-01-29T07:26:36;98769.88;;;0.02;100.00
18795;BME280;29610;49.022;12.114;2023-01-29T07:29:05;98770.31;;;-0.02;100.00
18795;BME280;29610;49.022;12.114;2023-01-29T07:31:34;98769.16;;;-0.06;100.00
18795;BME280;29610;49.022;12.114;2023-01-29T07:34:04;98767.22;;;0.02;100.00
18795;BME280;29610;49.022;12.114;2023-01-29T07:36:32;98765.19;;;-0.03;100.00
18795;BME280;29610;49.022;12.114;2023-01-29T07:39:03;98768.47;;;-0.01;100.00
18795;BME280;29610;49.022;12.114;2023-01-29T07:41:33;98767.06;;;0.08;100.00
18795;BME280;29610;49.022;12.114;2023-01-29T07:44:14;98768.72;;;0.09;100.00
18795;BME280;29610;49.022;12.114;2023-01-29T07:46:43;98774.31;;;0.08;100.00
18795;BME280;29610;49.022;12.114;2023-01-29T07:49:11;98774.06;;;0.09;100.00
18795;BME280;29610;49.022;12.114;2023-01-29T07:51:40;98779.88;;;0.06;100.00
18795;BME280;29610;49.022;12.114;2023-01-29T07:54:09;98780.63;;;0.25;100.00
18795;BME280;29610;49.022;12.114;2023-01-29T07:56:39;98773.34;;;0.02;100.00
18795;BME280;29610;49.022;12.114;2023-01-29T07:59:08;98775.31;;;-0.05;100.00
18795;BME280;29610;49.022;12.114;2023-01-29T08:01:37;98780.56;;;0.02;100.00
18795;BME280;29610;49.022;12.114;2023-01-29T08:04:06;98784.81;;;0.21;100.00
18795;BME280;29610;49.022;12.114;2023-01-29T08:06:34;98784.84;;;0.03;100.00
18795;BME280;29610;49.022;12.114;2023-01-29T08:09:03;98779.88;;;0.18;100.00
18795;BME280;29610;49.022;12.114;2023-01-29T08:11:32;98795.22;;;0.11;100.00
18795;BME280;29610;49.022;12.114;2023-01-29T08:14:02;98804.63;;;0.02;100.00
18795;BME280;29610;49.022;12.114;2023-01-29T08:16:30;98816.09;;;0.02;100.00
18795;BME280;29610;49.022;12.114;2023-01-29T08:19:01;98821.63;;;0.19;100.00
18795;BME280;29610;49.022;12.114;2023-01-29T08:21:30;98818.97;;;0.19;100.00
18795;BME280;29610;49.022;12.114;2023-01-29T08:23:58;98822.00;;;0.22;100.00
18795;BME280;29610;49.022;12.114;2023-01-29T08:26:32;98820.50;;;0.26;100.00
18795;BME280;29610;49.022;12.114;2023-01-29T08:29:02;98799.16;;;0.49;100.00
18795;BME280;29610;49.022;12.114;2023-01-29T08:31:31;98808.56;;;0.52;100.00
18795;BME280;29610;49.022;12.114;2023-01-29T08:34:00;98807.75;;;0.51;100.00
18795;BME280;29610;49.022;12.114;2023-01-29T08:36:29;98810.06;;;0.36;100.00
18795;BME280;29610;49.022;12.114;2023-01-29T08:38:57;98819.09;;;0.35;100.00
18795;BME280;29610;49.022;12.114;2023-01-29T08:41:26;98833.44;;;0.41;100.00
18795;BME280;29610;49.022;12.114;2023-01-29T08:43:55;98830.44;;;0.49;100.00
18795;BME280;29610;49.022;12.114;2023-01-29T08:46:27;98832.41;;;0.53;100.00
18795;BME280;29610;49.022;12.114;2023-01-29T08:48:56;98828.88;;;0.94;100.00
18795;BME280;29610;49.022;12.114;2023-01-29T08:51:25;98829.47;;;0.84;100.00
18795;BME280;29610;49.022;12.114;2023-01-29T08:53:54;98841.44;;;0.93;100.00
18795;BME280;29610;49.022;12.114;2023-01-29T08:56:22;98841.31;;;0.88;100.00
18795;BME280;29610;49.022;12.114;2023-01-29T08:58:51;98849.31;;;0.65;100.00
18795;BME280;29610;49.022;12.114;2023-01-29T09:01:20;98852.44;;;0.51;100.00
18795;BME280;29610;49.022;12.114;2023-01-29T09:03:50;98857.00;;;0.73;100.00
18795;BME280;29610;49.022;12.114;2023-01-29T09:06:19;98853.53;;;0.84;100.00
18795;BME280;29610;49.022;12.114;2023-01-29T09:08:47;98867.13;;;0.71;100.00
18795;BME280;29610;49.022;12.114;2023-01-29T09:11:16;98856.56;;;0.76;100.00
18795;BME280;29610;49.022;12.114;2023-01-29T09:13:45;98854.22;;;0.68;100.00
18795;BME280;29610;49.022;12.114;2023-01-29T09:16:13;98849.00;;;0.96;100.00
18795;BME280;29610;49.022;12.114;2023-01-29T09:18:42;98852.59;;;1.13;100.00
18795;BME280;29610;49.022;12.114;2023-01-29T09:21:12;98848.75;;;0.86;100.00
18795;BME280;29610;49.022;12.114;2023-01-29T09:23:41;98844.22;;;0.87;100.00
18795;BME280;29610;49.022;12.114;2023-01-29T09:26:09;98843.31;;;0.81;100.00
18795;BME280;29610;49.022;12.114;2023-01-29T09:28:38;98840.25;;;0.78;100.00
18795;BME280;29610;49.022;12.114;2023-01-29T09:31:07;98837.47;;;0.84;100.00
18795;BME280;29610;49.022;12.114;2023-01-29T09:33:36;98842.13;;;0.89;100.00
18795;BME280;29610;49.022;12.114;2023-01-29T09:36:06;98837.13;;;0.81;100.00
18795;BME280;29610;49.022;12.114;2023-01-29T09:38:36;98846.84;;;0.52;100.00
18795;BME280;29610;49.022;12.114;2023-01-29T09:41:17;98837.34;;;0.79;100.00
18795;BME280;29610;49.022;12.114;2023-01-29T09:43:57;98837.19;;;0.51;100.00
18795;BME280;29610;49.022;12.114;2023-01-29T09:46:36;98837.88;;;0.47;100.00
18795;BME280;29610;49.022;12.114;2023-01-29T09:49:14;98833.84;;;0.56;100.00
18795;BME280;29610;49.022;12.114;2023-01-29T09:51:52;98838.75;;;0.82;100.00
18795;BME280;29610;49.022;12.114;2023-01-29T09:54:28;98829.09;;;1.15;100.00
18795;BME280;29610;49.022;12.114;2023-01-29T09:56:59;98821.06;;;1.04;100.00
18795;BME280;29610;49.022;12.114;2023-01-29T09:59:30;98823.28;;;1.18;100.00
18795;BME280;29610;49.022;12.114;2023-01-29T10:02:08;98809.50;;;1.49;100.00
18795;BME280;29610;49.022;12.114;2023-01-29T10:05:04;98795.72;;;1.69;100.00
18795;BME280;29610;49.022;12.114;2023-01-29T10:08:24;98804.97;;;1.90;100.00
18795;BME280;29610;49.022;12.114;2023-01-29T10:11:08;98805.25;;;1.77;100.00
18795;BME280;29610;49.022;12.114;2023-01-29T10:13:47;98798.31;;;1.52;100.00
18795;BME280;29610;49.022;12.114;2023-01-29T10:16:35;98796.09;;;1.49;100.00
18795;BME280;29610;49.022;12.114;2023-01-29T10:19:43;98787.19;;;1.21;100.00
18795;BME280;29610;49.022;12.114;2023-01-29T10:22:44;98795.44;;;1.31;100.00
18795;BME280;29610;49.022;12.114;2023-01-29T10:25:19;98792.47;;;1.95;100.00
18795;BME280;29610;49.022;12.114;2023-01-29T10:27:53;98789.31;;;2.59;100.00
18795;BME280;29610;49.022;12.114;2023-01-29T10:30:32;98789.34;;;2.76;100.00
18795;BME280;29610;49.022;12.114;2023-01-29T10:33:03;98785.19;;;2.52;100.00
18795;BME280;29610;49.022;12.114;2023-01-29T10:35:37;98786.81;;;2.69;100.00
18795;BME280;29610;49.022;12.114;2023-01-29T10:38:28;98789.41;;;2.64;100.00
18795;BME280;29610;49.022;12.114;2023-01-29T10:41:16;98783.63;;;2.39;100.00
18795;BME280;29610;49.022;12.114;2023-01-29T10:44:07;98786.47;;;2.33;100.00
18795;BME280;29610;49.022;12.114;2023-01-29T10:47:02;98779.59;;;2.09;100.00
18795;BME280;29610;49.022;12.114;2023-01-29T10:53:05;98783.44;;;1.33;100.00
18795;BME280;29610;49.022;12.114;2023-01-29T10:55:55;98776.25;;;1.34;100.00
18795;BME280;29610;49.022;12.114;2023-01-29T10:58:36;98767.31;;;1.57;100.00
18795;BME280;29610;49.022;12.114;2023-01-29T11:01:09;98763.69;;;1.63;100.00
18795;BME280;29610;49.022;12.114;2023-01-29T11:03:38;98749.31;;;2.25;100.00
18795;BME280;29610;49.022;12.114;2023-01-29T11:06:14;98722.91;;;2.88;100.00
18795;BME280;29610;49.022;12.114;2023-01-29T11:08:53;98726.84;;;3.40;100.00
18795;BME280;29610;49.022;12.114;2023-01-29T11:11:32;98724.22;;;3.45;100.00
18795;BME280;29610;49.022;12.114;2023-01-29T11:14:09;98721.66;;;3.34;100.00
18795;BME280;29610;49.022;12.114;2023-01-29T11:16:43;98726.13;;;3.71;100.00
18795;BME280;29610;49.022;12.114;2023-01-29T11:19:14;98716.50;;;3.75;100.00
18795;BME280;29610;49.022;12.114;2023-01-29T11:21:52;98724.09;;;3.14;100.00
18795;BME280;29610;49.022;12.114;2023-01-29T11:24:25;98732.00;;;2.32;100.00
18795;BME280;29610;49.022;12.114;2023-01-29T11:26:57;98738.16;;;2.16;100.00
18795;BME280;29610;49.022;12.114;2023-01-29T11:29:38;98733.28;;;2.13;100.00
18795;BME280;29610;49.022;12.114;2023-01-29T11:32:14;98729.00;;;2.45;100.00
18795;BME280;29610;49.022;12.114;2023-01-29T11:35:03;98737.47;;;1.93;100.00
18795;BME280;29610;49.022;12.114;2023-01-29T11:37:36;98740.16;;;1.93;100.00
18795;BME280;29610;49.022;12.114;2023-01-29T11:40:48;98723.34;;;1.97;100.00
18795;BME280;29610;49.022;12.114;2023-01-29T11:43:27;98718.63;;;2.54;100.00
18795;BME280;29610;49.022;12.114;2023-01-29T11:46:01;98708.38;;;2.84;100.00
18795;BME280;29610;49.022;12.114;2023-01-29T11:48:41;98703.91;;;2.73;100.00
18795;BME280;29610;49.022;12.114;2023-01-29T11:51:20;98689.59;;;2.67;100.00
18795;BME280;29610;49.022;12.114;2023-01-29T11:53:54;98692.28;;;2.84;100.00
18795;BME280;29610;49.022;12.114;2023-01-29T11:56:29;98674.81;;;3.03;100.00
18795;BME280;29610;49.022;12.114;2023-01-29T11:59:01;98673.78;;;3.31;100.00
18795;BME280;29610;49.022;12.114;2023-01-29T12:01:35;98668.78;;;3.18;100.00
18795;BME280;29610;49.022;12.114;2023-01-29T12:04:17;98674.03;;;3.51;100.00
18795;BME280;29610;49.022;12.114;2023-01-29T12:06:48;98662.41;;;3.72;100.00
18795;BME280;29610;49.022;12.114;2023-01-29T12:09:22;98660.78;;;3.71;100.00
18795;BME280;29610;49.022;12.114;2023-01-29T12:11:53;98650.13;;;4.07;100.00
18795;BME280;29610;49.022;12.114;2023-01-29T12:14:31;98645.50;;;4.03;100.00
18795;BME280;29610;49.022;12.114;2023-01-29T12:17:11;98640.66;;;4.36;100.00
18795;BME280;29610;49.022;12.114;2023-01-29T12:19:48;98639.50;;;3.64;100.00
18795;BME280;29610;49.022;12.114;2023-01-29T12:22:33;98638.53;;;3.75;100.00
18795;BME280;29610;49.022;12.114;2023-01-29T12:25:20;98630.72;;;4.00;100.00
18795;BME280;29610;49.022;12.114;2023-01-29T12:27:58;98627.91;;;4.22;100.00
18795;BME280;29610;49.022;12.114;2023-01-29T12:30:37;98621.03;;;4.04;100.00
18795;BME280;29610;49.022;12.114;2023-01-29T12:33:16;98633.47;;;3.79;100.00
18795;BME280;29610;49.022;12.114;2023-01-29T12:35:53;98631.66;;;3.89;100.00
18795;BME280;29610;49.022;12.114;2023-01-29T12:38:26;98626.63;;;3.98;100.00
18795;BME280;29610;49.022;12.114;2023-01-29T12:41:03;98637.72;;;3.48;100.00
18795;BME280;29610;49.022;12.114;2023-01-29T12:43:42;98626.97;;;3.48;100.00
18795;BME280;29610;49.022;12.114;2023-01-29T12:46:21;98629.22;;;3.88;100.00
18795;BME280;29610;49.022;12.114;2023-01-29T12:48:55;98620.94;;;3.94;100.00
18795;BME280;29610;49.022;12.114;2023-01-29T12:51:34;98609.38;;;4.25;100.00
18795;BME280;29610;49.022;12.114;2023-01-29T12:54:08;98612.66;;;4.37;100.00
18795;BME280;29610;49.022;12.114;2023-01-29T12:56:44;98608.25;;;4.21;100.00
18795;BME280;29610;49.022;12.114;2023-01-29T12:59:20;98606.66;;;3.89;100.00
18795;BME280;29610;49.022;12.114;2023-01-29T13:02:01;98595.03;;;3.83;100.00
18795;BME280;29610;49.022;12.114;2023-01-29T13:04:39;98593.59;;;3.71;100.00
18795;BME280;29610;49.022;12.114;2023-01-29T13:07:16;98592.78;;;3.70;100.00
18795;BME280;29610;49.022;12.114;2023-01-29T13:09:52;98600.34;;;2.98;100.00
18795;BME280;29610;49.022;12.114;2023-01-29T13:12:23;98604.59;;;2.73;100.00
18795;BME280;29610;49.022;12.114;2023-01-29T13:14:56;98607.84;;;2.53;100.00
18795;BME280;29610;49.022;12.114;2023-01-29T13:17:32;98600.44;;;2.82;100.00
18795;BME280;29610;49.022;12.114;2023-01-29T13:20:11;98592.97;;;2.89;100.00
18795;BME280;29610;49.022;12.114;2023-01-29T13:22:44;98578.84;;;2.93;100.00
18795;BME280;29610;49.022;12.114;2023-01-29T13:25:16;98581.09;;;3.28;100.00
18795;BME280;29610;49.022;12.114;2023-01-29T13:27:47;98583.81;;;3.60;100.00
18795;BME280;29610;49.022;12.114;2023-01-29T13:30:28;98579.97;;;3.24;100.00
18795;BME280;29610;49.022;12.114;2023-01-29T13:33:00;98575.09;;;3.21;100.00
18795;BME280;29610;49.022;12.114;2023-01-29T13:35:41;98571.63;;;2.99;100.00